Gesamt
Nanango Airport (Nanango Queensland) YNAN Wetter
There is no TAF data available at YNAN. Showing TAF data for YKRY (12 mi W).
KGY Terminal Area Forecast (keine Daten für YNAN)
| Date | Time (AEST) | Flight Rules | Wind Dir. | Speed | Type | Height AGL (ft) | Visibility | Remarks | ||||||
|---|---|---|---|---|---|---|---|---|---|---|---|---|---|---|
There is no METAR data available at YNAN. Showing METAR data for YKRY (12 mi W).
Aktueller METAR-Verlauf KGY (keine Daten für YNAN)
| Date | Time (AEST) | Flight Rules | Wind Dir. | Speed | Type | Height AGL (ft) | Visibility | Temp (°C) | Temp (°F) | Dew Point (°C) | Dew Point (°F) | Rel. Humid. | Pressure | Density Altitude | Remarks |
|---|---|---|---|---|---|---|---|---|---|---|---|---|---|---|---|
| 04-Sep | 18:00 | VFR | 220° | 4 kt | 10000 meters | 24° | 75° | 6° | 42° | 31% | 1020 mb | 2.609 ft | |||
| 04-Sep | 17:00 | VFR | 240° | 10 kt | 10000 meters | 28° | 82° | 5° | 41° | 23% | 1019 mb | 3.119 ft | |||
| 04-Sep | 16:00 | VFR | 230° | 11 kt | 10000 meters | 30° | 86° | 6° | 42° | 22% | 1019 mb | 3.359 ft | |||
| 04-Sep | 15:00 | VFR | 220° | 12 kt | 10000 meters | 30° | 86° | 6° | 42° | 22% | 1019 mb | 3.359 ft | |||
| 04-Sep | 14:00 | VFR | 230° | 15 kt | 10000 meters | 30° | 86° | 5° | 41° | 21% | 1020 mb | 3.329 ft | |||
| 04-Sep | 13:00 | VFR | 250° | 10 kt | 10000 meters | 30° | 86° | 5° | 41° | 21% | 1020 mb | 3.329 ft | |||
| 04-Sep | 12:00 | VFR | 240° | 10 kt | 10000 meters | 30° | 86° | 7° | 44° | 24% | 1021 mb | 3.299 ft | |||
| 04-Sep | 11:00 | VFR | 190° | 4 kt | 10000 meters | 27° | 80° | 8° | 46° | 30% | 1022 mb | 2.910 ft | |||
| 04-Sep | 10:00 | VFR | 50° | 2 kt | 10000 meters | 26° | 78° | 10° | 50° | 37% | 1023 mb | 2.760 ft | |||
| 04-Sep | 09:00 | VFR | 250° | 3 kt | 10000 meters | 21° | 69° | 10° | 50° | 49% | 1024 mb | 2.131 ft | |||
| 04-Sep | 08:00 | VFR | 330° | 2 kt | 10000 meters | 17° | 62° | 11° | 51° | 68% | 1023 mb | 1.680 ft | |||
| 04-Sep | 07:00 | VFR | 190° | 3 kt | 10000 meters | 10° | 50° | 8° | 46° | 87% | 1023 mb | 840 ft | |||
| 04-Sep | 06:00 | VFR | Calm | 10000 meters | 8° | 46° | 6° | 42° | 87% | 1022 mb | 630 ft | ||||
| 04-Sep | 05:00 | VFR | Calm | 10000 meters | 8° | 46° | 7° | 44° | 93% | 1021 mb | 659 ft | ||||
| 04-Sep | 04:00 | VFR | Calm | 10000 meters | 9° | 48° | 8° | 46° | 93% | 1021 mb | 779 ft | ||||
| 04-Sep | 03:00 | VFR | Calm | 10000 meters | 10° | 50° | 8° | 46° | 87% | 1021 mb | 899 ft | ||||
| 04-Sep | 02:00 | VFR | Calm | 10000 meters | 10° | 50° | 7° | 44° | 82% | 1021 mb | 899 ft | ||||
| 04-Sep | 01:00 | VFR | Calm | 10000 meters | 12° | 53° | 9° | 48° | 82% | 1021 mb | 1.139 ft | ||||
| 04-Sep | 00:00 | VFR | Calm | 10000 meters | 13° | 55° | 8° | 46° | 72% | 1021 mb | 1.259 ft | ||||
| 03-Sep | 23:00 | VFR | Calm | 10000 meters | 15° | 59° | 8° | 46° | 63% | 1021 mb | 1.499 ft | ||||
| 03-Sep | 22:00 | VFR | Calm | 10000 meters | 15° | 59° | 8° | 46° | 63% | 1021 mb | 1.499 ft | ||||
| 03-Sep | 21:00 | VFR | Calm | 10000 meters | 15° | 59° | 8° | 46° | 63% | 1021 mb | 1.499 ft | ||||
| 03-Sep | 20:00 | VFR | Calm | 10000 meters | 18° | 64° | 8° | 46° | 52% | 1020 mb | 1.889 ft | ||||
| 03-Sep | 19:00 | VFR | 30° | 2 kt | 10000 meters | 17° | 62° | 7° | 44° | 52% | 1020 mb | 1.769 ft |
Anmelden
| Ihr Browser wird nicht unterstützt. aktualisieren Sie Ihren Browser |
